sensor_id;sensor_type;location;lat;lon;timestamp;P1;durP1;ratioP1;P2;durP2;ratioP2
63902;SDS011;50072;50.678;13.938;2023-04-15T00:01:14;0.47;;;0.30;;
63902;SDS011;50072;50.678;13.938;2023-04-15T00:03:44;0.10;;;0.10;;
63902;SDS011;50072;50.678;13.938;2023-04-15T00:06:16;0.60;;;0.20;;
63902;SDS011;50072;50.678;13.938;2023-04-15T00:08:44;0.43;;;0.22;;
63902;SDS011;50072;50.678;13.938;2023-04-15T00:11:12;0.90;;;0.40;;
63902;SDS011;50072;50.678;13.938;2023-04-15T00:13:44;0.45;;;0.30;;
63902;SDS011;50072;50.678;13.938;2023-04-15T00:16:17;0.35;;;0.20;;
63902;SDS011;50072;50.678;13.938;2023-04-15T00:21:10;0.40;;;0.30;;
63902;SDS011;50072;50.678;13.938;2023-04-15T00:23:38;0.95;;;0.43;;
63902;SDS011;50072;50.678;13.938;2023-04-15T00:26:06;0.52;;;0.30;;
63902;SDS011;50072;50.678;13.938;2023-04-15T00:28:38;0.47;;;0.20;;
63902;SDS011;50072;50.678;13.938;2023-04-15T00:31:04;0.47;;;0.30;;
63902;SDS011;50072;50.678;13.938;2023-04-15T00:33:31;0.28;;;0.28;;
63902;SDS011;50072;50.678;13.938;2023-04-15T00:36:05;0.40;;;0.32;;
63902;SDS011;50072;50.678;13.938;2023-04-15T00:38:40;0.35;;;0.32;;
63902;SDS011;50072;50.678;13.938;2023-04-15T00:41:08;0.20;;;0.20;;
63902;SDS011;50072;50.678;13.938;2023-04-15T00:43:41;0.85;;;0.30;;
63902;SDS011;50072;50.678;13.938;2023-04-15T00:46:08;0.68;;;0.30;;
63902;SDS011;50072;50.678;13.938;2023-04-15T00:51:11;0.45;;;0.20;;
63902;SDS011;50072;50.678;13.938;2023-04-15T00:53:38;0.20;;;0.20;;
63902;SDS011;50072;50.678;13.938;2023-04-15T00:58:38;0.30;;;0.17;;
63902;SDS011;50072;50.678;13.938;2023-04-15T01:03:41;12.73;;;3.90;;
63902;SDS011;50072;50.678;13.938;2023-04-15T01:06:10;2.33;;;1.00;;
63902;SDS011;50072;50.678;13.938;2023-04-15T01:08:37;2.35;;;0.70;;
63902;SDS011;50072;50.678;13.938;2023-04-15T01:11:03;2.00;;;0.70;;
63902;SDS011;50072;50.678;13.938;2023-04-15T01:13:40;3.70;;;0.60;;
63902;SDS011;50072;50.678;13.938;2023-04-15T01:16:13;0.75;;;0.38;;
63902;SDS011;50072;50.678;13.938;2023-04-15T01:23:46;1.08;;;0.60;;
63902;SDS011;50072;50.678;13.938;2023-04-15T01:26:14;1.17;;;0.60;;
63902;SDS011;50072;50.678;13.938;2023-04-15T01:28:43;1.02;;;0.40;;
63902;SDS011;50072;50.678;13.938;2023-04-15T01:31:11;0.35;;;0.20;;
63902;SDS011;50072;50.678;13.938;2023-04-15T01:33:44;0.70;;;0.20;;
63902;SDS011;50072;50.678;13.938;2023-04-15T01:36:14;0.40;;;0.28;;
63902;SDS011;50072;50.678;13.938;2023-04-15T01:38:46;0.65;;;0.30;;
63902;SDS011;50072;50.678;13.938;2023-04-15T01:41:15;4.35;;;2.10;;
63902;SDS011;50072;50.678;13.938;2023-04-15T01:43:46;2.10;;;0.90;;
63902;SDS011;50072;50.678;13.938;2023-04-15T01:46:14;0.43;;;0.30;;
63902;SDS011;50072;50.678;13.938;2023-04-15T01:48:44;0.60;;;0.35;;
63902;SDS011;50072;50.678;13.938;2023-04-15T01:51:16;0.20;;;0.20;;
63902;SDS011;50072;50.678;13.938;2023-04-15T01:53:42;0.40;;;0.30;;
63902;SDS011;50072;50.678;13.938;2023-04-15T01:56:08;0.40;;;0.20;;
63902;SDS011;50072;50.678;13.938;2023-04-15T01:58:42;0.63;;;0.20;;
63902;SDS011;50072;50.678;13.938;2023-04-15T02:01:12;0.37;;;0.30;;
63902;SDS011;50072;50.678;13.938;2023-04-15T02:03:44;0.25;;;0.20;;
63902;SDS011;50072;50.678;13.938;2023-04-15T02:06:16;0.38;;;0.22;;
63902;SDS011;50072;50.678;13.938;2023-04-15T02:08:44;1.65;;;0.30;;
63902;SDS011;50072;50.678;13.938;2023-04-15T02:13:40;1.17;;;0.50;;
63902;SDS011;50072;50.678;13.938;2023-04-15T02:16:17;0.82;;;0.32;;
63902;SDS011;50072;50.678;13.938;2023-04-15T02:18:45;0.77;;;0.35;;
63902;SDS011;50072;50.678;13.938;2023-04-15T02:21:14;0.77;;;0.35;;
63902;SDS011;50072;50.678;13.938;2023-04-15T02:23:42;0.20;;;0.15;;
63902;SDS011;50072;50.678;13.938;2023-04-15T02:26:14;0.20;;;0.20;;
63902;SDS011;50072;50.678;13.938;2023-04-15T02:28:41;0.10;;;0.10;;
63902;SDS011;50072;50.678;13.938;2023-04-15T02:31:14;0.15;;;0.10;;
63902;SDS011;50072;50.678;13.938;2023-04-15T02:33:44;0.28;;;0.20;;
63902;SDS011;50072;50.678;13.938;2023-04-15T02:36:16;0.20;;;0.13;;
63902;SDS011;50072;50.678;13.938;2023-04-15T02:38:44;0.20;;;0.20;;
63902;SDS011;50072;50.678;13.938;2023-04-15T02:43:44;0.30;;;0.25;;
63902;SDS011;50072;50.678;13.938;2023-04-15T02:46:16;0.43;;;0.20;;
63902;SDS011;50072;50.678;13.938;2023-04-15T02:48:44;1.45;;;0.40;;
63902;SDS011;50072;50.678;13.938;2023-04-15T02:53:44;1.15;;;0.50;;
63902;SDS011;50072;50.678;13.938;2023-04-15T02:56:14;0.63;;;0.38;;
63902;SDS011;50072;50.678;13.938;2023-04-15T02:58:47;0.75;;;0.40;;
63902;SDS011;50072;50.678;13.938;2023-04-15T03:01:15;0.50;;;0.30;;
63902;SDS011;50072;50.678;13.938;2023-04-15T03:03:46;0.85;;;0.40;;
63902;SDS011;50072;50.678;13.938;2023-04-15T03:06:14;0.38;;;0.30;;
63902;SDS011;50072;50.678;13.938;2023-04-15T03:08:45;0.82;;;0.40;;
63902;SDS011;50072;50.678;13.938;2023-04-15T03:11:18;0.65;;;0.30;;
63902;SDS011;50072;50.678;13.938;2023-04-15T03:13:44;1.25;;;0.20;;
63902;SDS011;50072;50.678;13.938;2023-04-15T03:16:14;0.70;;;0.40;;
63902;SDS011;50072;50.678;13.938;2023-04-15T03:18:47;1.25;;;0.40;;
63902;SDS011;50072;50.678;13.938;2023-04-15T03:21:15;0.43;;;0.30;;
63902;SDS011;50072;50.678;13.938;2023-04-15T03:23:45;0.40;;;0.22;;
63902;SDS011;50072;50.678;13.938;2023-04-15T03:29:05;1.00;;;0.30;;
63902;SDS011;50072;50.678;13.938;2023-04-15T03:31:36;1.70;;;0.40;;
63902;SDS011;50072;50.678;13.938;2023-04-15T03:34:08;1.00;;;0.43;;
63902;SDS011;50072;50.678;13.938;2023-04-15T03:36:35;2.55;;;0.28;;
63902;SDS011;50072;50.678;13.938;2023-04-15T03:39:08;1.20;;;0.60;;
63902;SDS011;50072;50.678;13.938;2023-04-15T03:44:05;1.73;;;0.80;;
63902;SDS011;50072;50.678;13.938;2023-04-15T03:46:32;3.22;;;0.98;;
63902;SDS011;50072;50.678;13.938;2023-04-15T03:51:33;17.75;;;3.70;;
63902;SDS011;50072;50.678;13.938;2023-04-15T03:54:07;15.88;;;3.55;;
63902;SDS011;50072;50.678;13.938;2023-04-15T03:56:33;59.97;;;12.13;;
63902;SDS011;50072;50.678;13.938;2023-04-15T03:59:06;42.10;;;9.73;;
63902;SDS011;50072;50.678;13.938;2023-04-15T04:01:44;7.20;;;1.45;;
63902;SDS011;50072;50.678;13.938;2023-04-15T04:04:14;1.58;;;0.60;;
63902;SDS011;50072;50.678;13.938;2023-04-15T04:06:41;0.73;;;0.40;;
63902;SDS011;50072;50.678;13.938;2023-04-15T04:09:08;1.95;;;0.60;;
63902;SDS011;50072;50.678;13.938;2023-04-15T04:14:06;0.73;;;0.50;;
63902;SDS011;50072;50.678;13.938;2023-04-15T04:16:41;0.47;;;0.40;;
63902;SDS011;50072;50.678;13.938;2023-04-15T04:19:14;2.40;;;0.70;;
63902;SDS011;50072;50.678;13.938;2023-04-15T04:21:45;1.27;;;0.60;;
63902;SDS011;50072;50.678;13.938;2023-04-15T04:24:14;1.58;;;0.85;;
63902;SDS011;50072;50.678;13.938;2023-04-15T04:26:43;0.65;;;0.40;;
63902;SDS011;50072;50.678;13.938;2023-04-15T04:31:38;0.68;;;0.40;;
63902;SDS011;50072;50.678;13.938;2023-04-15T04:34:09;1.40;;;0.57;;
63902;SDS011;50072;50.678;13.938;2023-04-15T04:36:37;0.88;;;0.40;;
63902;SDS011;50072;50.678;13.938;2023-04-15T04:39:14;0.75;;;0.50;;
63902;SDS011;50072;50.678;13.938;2023-04-15T04:41:43;1.45;;;0.60;;
63902;SDS011;50072;50.678;13.938;2023-04-15T04:44:10;1.55;;;0.50;;
63902;SDS011;50072;50.678;13.938;2023-04-15T04:46:39;1.08;;;0.65;;
63902;SDS011;50072;50.678;13.938;2023-04-15T04:54:10;50.90;;;11.57;;
63902;SDS011;50072;50.678;13.938;2023-04-15T04:56:44;136.65;;;28.42;;
63902;SDS011;50072;50.678;13.938;2023-04-15T05:01:42;13.80;;;4.05;;
63902;SDS011;50072;50.678;13.938;2023-04-15T05:04:08;15.45;;;3.53;;
63902;SDS011;50072;50.678;13.938;2023-04-15T05:06:40;8.30;;;1.92;;
63902;SDS011;50072;50.678;13.938;2023-04-15T05:09:14;4.72;;;1.50;;
63902;SDS011;50072;50.678;13.938;2023-04-15T05:11:41;51.25;;;11.93;;
63902;SDS011;50072;50.678;13.938;2023-04-15T05:14:09;7.32;;;1.55;;
63902;SDS011;50072;50.678;13.938;2023-04-15T05:16:41;3.22;;;0.90;;
63902;SDS011;50072;50.678;13.938;2023-04-15T05:19:14;2.45;;;0.90;;
63902;SDS011;50072;50.678;13.938;2023-04-15T05:21:40;2.03;;;0.70;;
63902;SDS011;50072;50.678;13.938;2023-04-15T05:24:08;1.67;;;0.60;;
63902;SDS011;50072;50.678;13.938;2023-04-15T05:26:36;2.58;;;1.20;;
63902;SDS011;50072;50.678;13.938;2023-04-15T05:31:44;28.63;;;6.38;;
63902;SDS011;50072;50.678;13.938;2023-04-15T05:34:12;7.85;;;2.03;;
63902;SDS011;50072;50.678;13.938;2023-04-15T05:36:40;12.90;;;3.60;;
63902;SDS011;50072;50.678;13.938;2023-04-15T05:39:14;8.05;;;2.35;;
63902;SDS011;50072;50.678;13.938;2023-04-15T05:41:44;4.25;;;1.05;;
63902;SDS011;50072;50.678;13.938;2023-04-15T05:44:16;1.67;;;0.77;;
63902;SDS011;50072;50.678;13.938;2023-04-15T05:46:44;0.50;;;0.47;;
63902;SDS011;50072;50.678;13.938;2023-04-15T05:51:41;0.73;;;0.50;;
63902;SDS011;50072;50.678;13.938;2023-04-15T05:54:14;1.42;;;0.70;;
63902;SDS011;50072;50.678;13.938;2023-04-15T05:59:11;2.28;;;0.82;;
63902;SDS011;50072;50.678;13.938;2023-04-15T06:01:37;1.88;;;1.20;;
63902;SDS011;50072;50.678;13.938;2023-04-15T06:04:05;2.80;;;0.90;;
63902;SDS011;50072;50.678;13.938;2023-04-15T06:06:31;1.83;;;0.80;;
63902;SDS011;50072;50.678;13.938;2023-04-15T06:08:57;1.48;;;0.85;;
63902;SDS011;50072;50.678;13.938;2023-04-15T06:11:23;1.88;;;0.80;;
63902;SDS011;50072;50.678;13.938;2023-04-15T06:13:51;2.88;;;1.00;;
63902;SDS011;50072;50.678;13.938;2023-04-15T06:16:16;2.88;;;0.90;;
63902;SDS011;50072;50.678;13.938;2023-04-15T06:18:42;1.60;;;0.90;;
63902;SDS011;50072;50.678;13.938;2023-04-15T06:21:08;5.93;;;3.70;;
63902;SDS011;50072;50.678;13.938;2023-04-15T06:23:35;6.68;;;3.65;;
63902;SDS011;50072;50.678;13.938;2023-04-15T06:26:02;8.05;;;4.25;;
63902;SDS011;50072;50.678;13.938;2023-04-15T06:28:28;5.53;;;3.55;;
63902;SDS011;50072;50.678;13.938;2023-04-15T06:30:54;8.57;;;4.18;;
63902;SDS011;50072;50.678;13.938;2023-04-15T06:33:19;8.73;;;5.32;;
63902;SDS011;50072;50.678;13.938;2023-04-15T06:35:47;10.00;;;4.97;;
63902;SDS011;50072;50.678;13.938;2023-04-15T06:38:14;7.85;;;5.03;;
63902;SDS011;50072;50.678;13.938;2023-04-15T06:40:41;8.60;;;5.40;;
63902;SDS011;50072;50.678;13.938;2023-04-15T06:43:07;8.13;;;5.28;;
63902;SDS011;50072;50.678;13.938;2023-04-15T06:45:34;8.05;;;4.65;;
63902;SDS011;50072;50.678;13.938;2023-04-15T06:47:59;7.70;;;4.95;;
63902;SDS011;50072;50.678;13.938;2023-04-15T06:50:26;9.85;;;6.35;;
63902;SDS011;50072;50.678;13.938;2023-04-15T06:52:52;9.75;;;6.57;;
63902;SDS011;50072;50.678;13.938;2023-04-15T06:55:20;11.68;;;6.25;;
63902;SDS011;50072;50.678;13.938;2023-04-15T06:57:46;13.13;;;7.47;;
63902;SDS011;50072;50.678;13.938;2023-04-15T07:00:12;22.55;;;10.27;;
63902;SDS011;50072;50.678;13.938;2023-04-15T07:02:39;14.98;;;7.85;;
63902;SDS011;50072;50.678;13.938;2023-04-15T07:05:05;20.48;;;8.65;;
63902;SDS011;50072;50.678;13.938;2023-04-15T07:07:32;16.85;;;7.53;;
63902;SDS011;50072;50.678;13.938;2023-04-15T07:09:58;10.18;;;5.38;;
63902;SDS011;50072;50.678;13.938;2023-04-15T07:12:24;8.20;;;4.90;;
63902;SDS011;50072;50.678;13.938;2023-04-15T07:14:50;8.85;;;4.60;;
63902;SDS011;50072;50.678;13.938;2023-04-15T07:17:16;6.88;;;4.80;;
63902;SDS011;50072;50.678;13.938;2023-04-15T07:19:44;7.45;;;4.93;;
63902;SDS011;50072;50.678;13.938;2023-04-15T07:22:10;7.95;;;5.13;;
63902;SDS011;50072;50.678;13.938;2023-04-15T07:24:42;7.50;;;4.50;;
63902;SDS011;50072;50.678;13.938;2023-04-15T07:27:08;7.90;;;5.15;;
63902;SDS011;50072;50.678;13.938;2023-04-15T07:29:34;7.90;;;5.57;;
63902;SDS011;50072;50.678;13.938;2023-04-15T07:32:00;6.75;;;5.10;;
63902;SDS011;50072;50.678;13.938;2023-04-15T07:34:26;8.93;;;5.45;;
63902;SDS011;50072;50.678;13.938;2023-04-15T07:36:53;8.57;;;5.53;;
63902;SDS011;50072;50.678;13.938;2023-04-15T07:39:19;10.63;;;5.90;;
63902;SDS011;50072;50.678;13.938;2023-04-15T07:41:44;14.73;;;7.57;;
63902;SDS011;50072;50.678;13.938;2023-04-15T07:44:11;14.05;;;7.28;;
63902;SDS011;50072;50.678;13.938;2023-04-15T07:46:36;14.45;;;7.80;;
63902;SDS011;50072;50.678;13.938;2023-04-15T07:49:02;11.10;;;6.90;;
63902;SDS011;50072;50.678;13.938;2023-04-15T07:51:30;10.45;;;6.80;;
63902;SDS011;50072;50.678;13.938;2023-04-15T07:53:56;7.97;;;5.40;;
63902;SDS011;50072;50.678;13.938;2023-04-15T07:56:23;7.85;;;4.90;;
63902;SDS011;50072;50.678;13.938;2023-04-15T08:01:35;8.93;;;5.32;;
63902;SDS011;50072;50.678;13.938;2023-04-15T08:04:03;7.90;;;5.05;;
63902;SDS011;50072;50.678;13.938;2023-04-15T08:06:35;9.02;;;5.00;;
63902;SDS011;50072;50.678;13.938;2023-04-15T08:09:10;11.15;;;6.85;;
63902;SDS011;50072;50.678;13.938;2023-04-15T08:11:46;9.10;;;6.10;;
63902;SDS011;50072;50.678;13.938;2023-04-15T08:14:16;9.18;;;5.00;;
63902;SDS011;50072;50.678;13.938;2023-04-15T08:16:43;9.93;;;5.95;;
63902;SDS011;50072;50.678;13.938;2023-04-15T08:19:09;8.90;;;5.95;;
63902;SDS011;50072;50.678;13.938;2023-04-15T08:21:35;8.18;;;5.50;;
63902;SDS011;50072;50.678;13.938;2023-04-15T08:24:01;7.47;;;4.32;;
63902;SDS011;50072;50.678;13.938;2023-04-15T08:26:27;7.68;;;5.22;;
63902;SDS011;50072;50.678;13.938;2023-04-15T08:28:53;8.40;;;5.45;;
63902;SDS011;50072;50.678;13.938;2023-04-15T08:31:19;8.43;;;4.88;;
63902;SDS011;50072;50.678;13.938;2023-04-15T08:33:45;6.30;;;4.15;;
63902;SDS011;50072;50.678;13.938;2023-04-15T08:36:10;7.47;;;4.50;;
63902;SDS011;50072;50.678;13.938;2023-04-15T08:38:39;5.63;;;3.75;;
63902;SDS011;50072;50.678;13.938;2023-04-15T08:41:11;4.95;;;3.40;;
63902;SDS011;50072;50.678;13.938;2023-04-15T08:43:57;4.57;;;2.85;;
63902;SDS011;50072;50.678;13.938;2023-04-15T08:46:26;4.50;;;3.33;;
63902;SDS011;50072;50.678;13.938;2023-04-15T08:48:55;5.00;;;3.25;;
63902;SDS011;50072;50.678;13.938;2023-04-15T08:51:21;5.78;;;4.10;;
63902;SDS011;50072;50.678;13.938;2023-04-15T08:53:48;4.78;;;3.50;;
63902;SDS011;50072;50.678;13.938;2023-04-15T08:56:15;5.07;;;3.30;;
63902;SDS011;50072;50.678;13.938;2023-04-15T08:58:44;5.05;;;3.25;;
63902;SDS011;50072;50.678;13.938;2023-04-15T09:01:11;4.50;;;3.05;;
63902;SDS011;50072;50.678;13.938;2023-04-15T09:03:38;5.40;;;3.13;;
63902;SDS011;50072;50.678;13.938;2023-04-15T09:06:04;6.50;;;3.25;;
63902;SDS011;50072;50.678;13.938;2023-04-15T09:08:32;3.72;;;2.70;;
63902;SDS011;50072;50.678;13.938;2023-04-15T09:11:01;4.20;;;2.83;;
63902;SDS011;50072;50.678;13.938;2023-04-15T09:13:31;5.15;;;2.78;;
63902;SDS011;50072;50.678;13.938;2023-04-15T09:15:56;3.08;;;2.45;;
63902;SDS011;50072;50.678;13.938;2023-04-15T09:18:26;4.45;;;2.90;;
63902;SDS011;50072;50.678;13.938;2023-04-15T09:20:54;3.53;;;2.60;;
63902;SDS011;50072;50.678;13.938;2023-04-15T09:23:20;4.50;;;3.10;;
63902;SDS011;50072;50.678;13.938;2023-04-15T09:25:46;5.00;;;3.10;;
63902;SDS011;50072;50.678;13.938;2023-04-15T09:28:13;3.85;;;2.35;;
63902;SDS011;50072;50.678;13.938;2023-04-15T09:30:41;3.92;;;2.40;;
63902;SDS011;50072;50.678;13.938;2023-04-15T09:33:10;3.83;;;2.58;;
63902;SDS011;50072;50.678;13.938;2023-04-15T09:35:40;3.95;;;2.42;;
63902;SDS011;50072;50.678;13.938;2023-04-15T09:38:07;4.80;;;2.45;;
63902;SDS011;50072;50.678;13.938;2023-04-15T09:40:35;3.47;;;2.42;;
63902;SDS011;50072;50.678;13.938;2023-04-15T09:43:03;3.28;;;2.30;;
63902;SDS011;50072;50.678;13.938;2023-04-15T09:45:31;6.50;;;2.58;;
63902;SDS011;50072;50.678;13.938;2023-04-15T09:47:58;5.05;;;3.33;;
63902;SDS011;50072;50.678;13.938;2023-04-15T09:50:40;3.38;;;2.55;;
63902;SDS011;50072;50.678;13.938;2023-04-15T09:53:10;4.80;;;2.67;;
63902;SDS011;50072;50.678;13.938;2023-04-15T09:55:39;5.05;;;2.90;;
63902;SDS011;50072;50.678;13.938;2023-04-15T09:58:16;3.92;;;2.55;;
63902;SDS011;50072;50.678;13.938;2023-04-15T10:00:43;4.07;;;2.63;;
63902;SDS011;50072;50.678;13.938;2023-04-15T10:03:11;7.03;;;2.63;;
63902;SDS011;50072;50.678;13.938;2023-04-15T10:05:45;4.03;;;2.65;;
63902;SDS011;50072;50.678;13.938;2023-04-15T10:08:13;3.40;;;1.80;;
63902;SDS011;50072;50.678;13.938;2023-04-15T10:10:40;3.60;;;1.80;;
63902;SDS011;50072;50.678;13.938;2023-04-15T10:13:06;2.97;;;1.90;;
63902;SDS011;50072;50.678;13.938;2023-04-15T10:15:34;3.83;;;1.90;;
63902;SDS011;50072;50.678;13.938;2023-04-15T10:18:00;3.55;;;1.80;;
63902;SDS011;50072;50.678;13.938;2023-04-15T10:20:29;3.15;;;1.90;;
63902;SDS011;50072;50.678;13.938;2023-04-15T10:22:56;3.05;;;1.65;;
63902;SDS011;50072;50.678;13.938;2023-04-15T10:25:23;2.50;;;1.50;;
63902;SDS011;50072;50.678;13.938;2023-04-15T10:27:52;3.58;;;2.20;;
63902;SDS011;50072;50.678;13.938;2023-04-15T10:30:18;4.38;;;2.67;;
63902;SDS011;50072;50.678;13.938;2023-04-15T10:32:45;3.08;;;1.88;;
63902;SDS011;50072;50.678;13.938;2023-04-15T10:35:11;9.68;;;2.80;;
63902;SDS011;50072;50.678;13.938;2023-04-15T10:37:38;2.60;;;1.70;;
63902;SDS011;50072;50.678;13.938;2023-04-15T10:45:52;4.05;;;1.52;;
63902;SDS011;50072;50.678;13.938;2023-04-15T10:51:14;7.65;;;2.55;;
63902;SDS011;50072;50.678;13.938;2023-04-15T10:53:40;5.53;;;2.35;;
63902;SDS011;50072;50.678;13.938;2023-04-15T10:56:13;4.47;;;2.38;;
63902;SDS011;50072;50.678;13.938;2023-04-15T10:58:44;3.20;;;1.80;;
63902;SDS011;50072;50.678;13.938;2023-04-15T11:01:14;4.63;;;3.33;;
63902;SDS011;50072;50.678;13.938;2023-04-15T11:03:43;4.53;;;2.50;;
63902;SDS011;50072;50.678;13.938;2023-04-15T11:06:11;6.53;;;2.78;;
63902;SDS011;50072;50.678;13.938;2023-04-15T11:08:53;6.75;;;3.53;;
63902;SDS011;50072;50.678;13.938;2023-04-15T11:12:13;2.78;;;1.40;;
63902;SDS011;50072;50.678;13.938;2023-04-15T11:14:38;3.15;;;1.50;;
63902;SDS011;50072;50.678;13.938;2023-04-15T11:17:05;2.37;;;1.33;;
63902;SDS011;50072;50.678;13.938;2023-04-15T11:19:40;2.67;;;1.38;;
63902;SDS011;50072;50.678;13.938;2023-04-15T11:22:09;3.85;;;2.00;;
63902;SDS011;50072;50.678;13.938;2023-04-15T11:24:36;1.90;;;1.20;;
63902;SDS011;50072;50.678;13.938;2023-04-15T11:27:22;4.03;;;2.70;;
63902;SDS011;50072;50.678;13.938;2023-04-15T11:29:49;3.28;;;1.83;;
63902;SDS011;50072;50.678;13.938;2023-04-15T11:32:15;3.35;;;1.73;;
63902;SDS011;50072;50.678;13.938;2023-04-15T11:34:40;4.07;;;2.40;;
63902;SDS011;50072;50.678;13.938;2023-04-15T11:37:06;3.00;;;1.70;;
63902;SDS011;50072;50.678;13.938;2023-04-15T11:39:32;1.80;;;1.30;;
63902;SDS011;50072;50.678;13.938;2023-04-15T11:42:00;2.25;;;1.60;;
63902;SDS011;50072;50.678;13.938;2023-04-15T11:44:26;2.30;;;1.50;;
63902;SDS011;50072;50.678;13.938;2023-04-15T11:46:53;2.78;;;1.88;;
63902;SDS011;50072;50.678;13.938;2023-04-15T11:49:28;2.10;;;1.63;;
63902;SDS011;50072;50.678;13.938;2023-04-15T11:51:55;3.58;;;1.42;;
63902;SDS011;50072;50.678;13.938;2023-04-15T11:54:21;3.20;;;1.80;;
63902;SDS011;50072;50.678;13.938;2023-04-15T11:56:50;2.53;;;1.33;;
63902;SDS011;50072;50.678;13.938;2023-04-15T11:59:17;1.40;;;1.10;;
63902;SDS011;50072;50.678;13.938;2023-04-15T12:01:43;3.80;;;2.35;;
63902;SDS011;50072;50.678;13.938;2023-04-15T12:06:48;6.68;;;3.22;;
63902;SDS011;50072;50.678;13.938;2023-04-15T12:09:15;2.78;;;1.70;;
63902;SDS011;50072;50.678;13.938;2023-04-15T12:11:42;2.30;;;1.60;;
63902;SDS011;50072;50.678;13.938;2023-04-15T12:16:59;6.55;;;3.40;;
63902;SDS011;50072;50.678;13.938;2023-04-15T12:22:04;2.40;;;1.85;;
63902;SDS011;50072;50.678;13.938;2023-04-15T12:24:31;3.00;;;1.77;;
63902;SDS011;50072;50.678;13.938;2023-04-15T12:27:02;1.55;;;1.25;;
63902;SDS011;50072;50.678;13.938;2023-04-15T12:29:29;3.10;;;1.63;;
63902;SDS011;50072;50.678;13.938;2023-04-15T12:34:59;1.77;;;1.30;;
63902;SDS011;50072;50.678;13.938;2023-04-15T12:37:25;2.17;;;1.52;;
63902;SDS011;50072;50.678;13.938;2023-04-15T12:39:52;1.92;;;1.52;;
63902;SDS011;50072;50.678;13.938;2023-04-15T12:42:19;2.47;;;1.80;;
63902;SDS011;50072;50.678;13.938;2023-04-15T12:44:45;2.47;;;1.80;;
63902;SDS011;50072;50.678;13.938;2023-04-15T12:47:12;2.38;;;1.70;;
63902;SDS011;50072;50.678;13.938;2023-04-15T12:49:37;2.75;;;1.90;;
63902;SDS011;50072;50.678;13.938;2023-04-15T12:52:04;3.05;;;1.80;;
63902;SDS011;50072;50.678;13.938;2023-04-15T12:54:30;3.20;;;2.25;;
63902;SDS011;50072;50.678;13.938;2023-04-15T12:56:57;3.03;;;2.10;;
63902;SDS011;50072;50.678;13.938;2023-04-15T12:59:24;3.10;;;2.25;;
63902;SDS011;50072;50.678;13.938;2023-04-15T13:01:51;3.10;;;2.30;;
63902;SDS011;50072;50.678;13.938;2023-04-15T13:04:17;2.65;;;1.98;;
63902;SDS011;50072;50.678;13.938;2023-04-15T13:06:44;2.40;;;1.92;;
63902;SDS011;50072;50.678;13.938;2023-04-15T13:09:09;3.67;;;2.60;;
63902;SDS011;50072;50.678;13.938;2023-04-15T13:11:35;3.42;;;2.30;;
63902;SDS011;50072;50.678;13.938;2023-04-15T13:14:06;3.45;;;2.22;;
63902;SDS011;50072;50.678;13.938;2023-04-15T13:19:01;2.90;;;2.20;;
63902;SDS011;50072;50.678;13.938;2023-04-15T13:21:29;3.08;;;2.50;;
63902;SDS011;50072;50.678;13.938;2023-04-15T13:23:56;3.30;;;2.40;;
63902;SDS011;50072;50.678;13.938;2023-04-15T13:26:22;4.63;;;2.90;;
63902;SDS011;50072;50.678;13.938;2023-04-15T13:28:48;3.80;;;2.90;;
63902;SDS011;50072;50.678;13.938;2023-04-15T13:31:14;3.08;;;2.53;;
63902;SDS011;50072;50.678;13.938;2023-04-15T13:33:40;18.60;;;6.93;;
63902;SDS011;50072;50.678;13.938;2023-04-15T13:36:06;11.07;;;4.72;;
63902;SDS011;50072;50.678;13.938;2023-04-15T13:38:32;23.00;;;7.88;;
63902;SDS011;50072;50.678;13.938;2023-04-15T13:40:58;25.00;;;7.60;;
63902;SDS011;50072;50.678;13.938;2023-04-15T13:43:24;12.48;;;4.38;;
63902;SDS011;50072;50.678;13.938;2023-04-15T13:45:50;11.30;;;3.75;;
63902;SDS011;50072;50.678;13.938;2023-04-15T13:48:16;3.88;;;2.50;;
63902;SDS011;50072;50.678;13.938;2023-04-15T13:50:44;4.45;;;2.30;;
63902;SDS011;50072;50.678;13.938;2023-04-15T13:53:10;3.53;;;2.55;;
63902;SDS011;50072;50.678;13.938;2023-04-15T13:55:37;2.97;;;2.35;;
63902;SDS011;50072;50.678;13.938;2023-04-15T13:58:08;2.47;;;2.03;;
63902;SDS011;50072;50.678;13.938;2023-04-15T14:00:34;2.78;;;2.13;;
63902;SDS011;50072;50.678;13.938;2023-04-15T14:03:00;2.60;;;1.83;;
63902;SDS011;50072;50.678;13.938;2023-04-15T14:05:26;2.30;;;1.80;;
63902;SDS011;50072;50.678;13.938;2023-04-15T14:07:52;2.33;;;1.85;;
63902;SDS011;50072;50.678;13.938;2023-04-15T14:10:18;2.55;;;2.00;;
63902;SDS011;50072;50.678;13.938;2023-04-15T14:12:44;2.15;;;1.75;;
63902;SDS011;50072;50.678;13.938;2023-04-15T14:15:10;2.35;;;1.80;;
63902;SDS011;50072;50.678;13.938;2023-04-15T14:17:36;2.60;;;1.88;;
63902;SDS011;50072;50.678;13.938;2023-04-15T14:20:02;4.80;;;3.50;;
63902;SDS011;50072;50.678;13.938;2023-04-15T14:22:31;2.50;;;1.88;;
63902;SDS011;50072;50.678;13.938;2023-04-15T14:24:58;2.30;;;1.83;;
63902;SDS011;50072;50.678;13.938;2023-04-15T14:27:25;3.33;;;2.53;;
63902;SDS011;50072;50.678;13.938;2023-04-15T14:29:51;2.63;;;2.10;;
63902;SDS011;50072;50.678;13.938;2023-04-15T14:32:19;4.18;;;3.05;;
63902;SDS011;50072;50.678;13.938;2023-04-15T14:34:45;2.60;;;1.98;;
63902;SDS011;50072;50.678;13.938;2023-04-15T14:37:12;4.70;;;3.40;;
63902;SDS011;50072;50.678;13.938;2023-04-15T14:39:38;2.92;;;2.00;;
63902;SDS011;50072;50.678;13.938;2023-04-15T14:42:04;2.88;;;2.40;;
63902;SDS011;50072;50.678;13.938;2023-04-15T14:44:31;2.42;;;2.00;;
63902;SDS011;50072;50.678;13.938;2023-04-15T14:46:57;2.45;;;2.10;;
63902;SDS011;50072;50.678;13.938;2023-04-15T14:49:23;2.80;;;2.40;;
63902;SDS011;50072;50.678;13.938;2023-04-15T14:51:49;3.83;;;2.10;;
63902;SDS011;50072;50.678;13.938;2023-04-15T14:54:16;2.83;;;2.20;;
63902;SDS011;50072;50.678;13.938;2023-04-15T14:56:42;3.00;;;2.17;;
63902;SDS011;50072;50.678;13.938;2023-04-15T14:59:08;2.67;;;2.10;;
63902;SDS011;50072;50.678;13.938;2023-04-15T15:01:35;3.47;;;2.65;;
63902;SDS011;50072;50.678;13.938;2023-04-15T15:04:02;4.40;;;2.80;;
63902;SDS011;50072;50.678;13.938;2023-04-15T15:06:34;3.17;;;2.40;;
63902;SDS011;50072;50.678;13.938;2023-04-15T15:09:06;7.28;;;2.65;;
63902;SDS011;50072;50.678;13.938;2023-04-15T15:11:32;3.60;;;2.60;;
63902;SDS011;50072;50.678;13.938;2023-04-15T15:14:01;3.58;;;2.30;;
63902;SDS011;50072;50.678;13.938;2023-04-15T15:16:36;3.08;;;2.22;;
63902;SDS011;50072;50.678;13.938;2023-04-15T15:19:03;2.97;;;2.17;;
63902;SDS011;50072;50.678;13.938;2023-04-15T15:21:32;2.90;;;2.00;;
63902;SDS011;50072;50.678;13.938;2023-04-15T15:24:00;4.47;;;3.67;;
63902;SDS011;50072;50.678;13.938;2023-04-15T15:26:26;4.93;;;3.30;;
63902;SDS011;50072;50.678;13.938;2023-04-15T15:28:54;5.18;;;2.28;;
63902;SDS011;50072;50.678;13.938;2023-04-15T15:31:21;2.70;;;2.17;;
63902;SDS011;50072;50.678;13.938;2023-04-15T15:33:48;3.05;;;2.08;;
63902;SDS011;50072;50.678;13.938;2023-04-15T15:36:16;2.47;;;1.90;;
63902;SDS011;50072;50.678;13.938;2023-04-15T15:38:42;2.63;;;1.98;;
63902;SDS011;50072;50.678;13.938;2023-04-15T15:41:08;2.70;;;1.98;;
63902;SDS011;50072;50.678;13.938;2023-04-15T15:43:37;4.15;;;2.60;;
63902;SDS011;50072;50.678;13.938;2023-04-15T15:46:04;5.20;;;3.30;;
63902;SDS011;50072;50.678;13.938;2023-04-15T15:48:32;9.77;;;4.38;;
63902;SDS011;50072;50.678;13.938;2023-04-15T15:51:00;11.15;;;4.85;;
63902;SDS011;50072;50.678;13.938;2023-04-15T15:53:27;3.55;;;2.47;;
63902;SDS011;50072;50.678;13.938;2023-04-15T15:55:53;3.92;;;2.33;;